sensor_id;sensor_type;location;lat;lon;timestamp;temperature;humidity
15359;DHT22;7779;49.596;11.070;2023-05-16T00:00:17;11.40;62.30
15359;DHT22;7779;49.596;11.070;2023-05-16T00:02:44;11.40;62.50
15359;DHT22;7779;49.596;11.070;2023-05-16T00:05:10;11.30;62.50
15359;DHT22;7779;49.596;11.070;2023-05-16T00:07:41;11.30;62.60
15359;DHT22;7779;49.596;11.070;2023-05-16T00:10:09;11.30;64.60
15359;DHT22;7779;49.596;11.070;2023-05-16T00:12:36;11.30;62.90
15359;DHT22;7779;49.596;11.070;2023-05-16T00:15:05;11.30;63.00
15359;DHT22;7779;49.596;11.070;2023-05-16T00:17:33;11.30;63.10
15359;DHT22;7779;49.596;11.070;2023-05-16T00:20:01;11.30;63.20
15359;DHT22;7779;49.596;11.070;2023-05-16T00:22:35;11.30;63.30
15359;DHT22;7779;49.596;11.070;2023-05-16T00:25:05;11.20;63.30
15359;DHT22;7779;49.596;11.070;2023-05-16T00:27:34;11.30;63.40
15359;DHT22;7779;49.596;11.070;2023-05-16T00:30:01;11.20;63.30
15359;DHT22;7779;49.596;11.070;2023-05-16T00:32:28;11.20;63.30
15359;DHT22;7779;49.596;11.070;2023-05-16T00:34:53;11.20;63.40
15359;DHT22;7779;49.596;11.070;2023-05-16T00:37:19;11.20;63.50
15359;DHT22;7779;49.596;11.070;2023-05-16T00:39:45;11.20;63.60
15359;DHT22;7779;49.596;11.070;2023-05-16T00:42:12;11.20;63.80
15359;DHT22;7779;49.596;11.070;2023-05-16T00:44:37;11.20;63.90
15359;DHT22;7779;49.596;11.070;2023-05-16T00:47:04;11.20;64.00
15359;DHT22;7779;49.596;11.070;2023-05-16T00:49:29;11.20;64.00
15359;DHT22;7779;49.596;11.070;2023-05-16T00:51:56;11.30;64.20
15359;DHT22;7779;49.596;11.070;2023-05-16T00:54:23;11.30;64.30
15359;DHT22;7779;49.596;11.070;2023-05-16T00:56:51;11.30;64.40
15359;DHT22;7779;49.596;11.070;2023-05-16T00:59:18;11.30;64.40
15359;DHT22;7779;49.596;11.070;2023-05-16T01:01:45;11.30;64.50
15359;DHT22;7779;49.596;11.070;2023-05-16T01:04:13;11.30;64.60
15359;DHT22;7779;49.596;11.070;2023-05-16T01:06:39;11.40;65.40
15359;DHT22;7779;49.596;11.070;2023-05-16T01:09:05;11.40;64.70
15359;DHT22;7779;49.596;11.070;2023-05-16T01:11:55;11.40;64.70
15359;DHT22;7779;49.596;11.070;2023-05-16T01:15:11;11.40;65.50
15359;DHT22;7779;49.596;11.070;2023-05-16T01:20:52;11.50;65.40
15359;DHT22;7779;49.596;11.070;2023-05-16T01:23:39;11.40;64.40
15359;DHT22;7779;49.596;11.070;2023-05-16T01:26:12;11.40;65.00
15359;DHT22;7779;49.596;11.070;2023-05-16T01:28:41;11.40;64.20
15359;DHT22;7779;49.596;11.070;2023-05-16T01:31:10;11.40;64.30
15359;DHT22;7779;49.596;11.070;2023-05-16T01:33:36;11.40;64.40
15359;DHT22;7779;49.596;11.070;2023-05-16T01:36:40;11.40;64.50
15359;DHT22;7779;49.596;11.070;2023-05-16T01:39:21;11.40;66.00
15359;DHT22;7779;49.596;11.070;2023-05-16T01:42:13;11.40;65.00
15359;DHT22;7779;49.596;11.070;2023-05-16T01:45:15;11.40;65.00
15359;DHT22;7779;49.596;11.070;2023-05-16T01:47:55;11.40;65.80
15359;DHT22;7779;49.596;11.070;2023-05-16T01:50:35;11.40;64.80
15359;DHT22;7779;49.596;11.070;2023-05-16T01:53:08;11.40;64.70
15359;DHT22;7779;49.596;11.070;2023-05-16T01:55:44;11.30;64.70
15359;DHT22;7779;49.596;11.070;2023-05-16T01:58:14;11.30;65.20
15359;DHT22;7779;49.596;11.070;2023-05-16T02:00:42;11.30;64.90
15359;DHT22;7779;49.596;11.070;2023-05-16T02:03:08;11.40;65.00
15359;DHT22;7779;49.596;11.070;2023-05-16T02:05:34;11.40;65.10
15359;DHT22;7779;49.596;11.070;2023-05-16T02:08:01;11.30;65.00
15359;DHT22;7779;49.596;11.070;2023-05-16T02:10:27;11.40;65.20
15359;DHT22;7779;49.596;11.070;2023-05-16T02:12:53;11.40;65.20
15359;DHT22;7779;49.596;11.070;2023-05-16T02:15:19;11.30;65.10
15359;DHT22;7779;49.596;11.070;2023-05-16T02:17:44;11.30;65.10
15359;DHT22;7779;49.596;11.070;2023-05-16T02:20:11;11.30;65.20
15359;DHT22;7779;49.596;11.070;2023-05-16T02:22:38;11.30;65.20
15359;DHT22;7779;49.596;11.070;2023-05-16T02:25:05;11.30;65.20
15359;DHT22;7779;49.596;11.070;2023-05-16T02:27:31;11.40;65.40
15359;DHT22;7779;49.596;11.070;2023-05-16T02:29:57;11.30;65.30
15359;DHT22;7779;49.596;11.070;2023-05-16T02:32:23;11.30;65.40
15359;DHT22;7779;49.596;11.070;2023-05-16T02:34:51;11.30;65.40
15359;DHT22;7779;49.596;11.070;2023-05-16T02:37:17;11.30;65.40
15359;DHT22;7779;49.596;11.070;2023-05-16T02:39:43;11.30;67.00
15359;DHT22;7779;49.596;11.070;2023-05-16T02:42:09;11.30;65.30
15359;DHT22;7779;49.596;11.070;2023-05-16T02:44:35;11.30;65.30
15359;DHT22;7779;49.596;11.070;2023-05-16T02:47:00;11.20;65.20
15359;DHT22;7779;49.596;11.070;2023-05-16T02:49:26;11.20;65.10
15359;DHT22;7779;49.596;11.070;2023-05-16T02:51:52;11.20;65.10
15359;DHT22;7779;49.596;11.070;2023-05-16T02:54:17;11.20;65.10
15359;DHT22;7779;49.596;11.070;2023-05-16T02:56:43;11.10;65.00
15359;DHT22;7779;49.596;11.070;2023-05-16T02:59:10;11.10;65.20
15359;DHT22;7779;49.596;11.070;2023-05-16T03:01:36;11.10;65.30
15359;DHT22;7779;49.596;11.070;2023-05-16T03:04:03;11.00;65.30
15359;DHT22;7779;49.596;11.070;2023-05-16T03:06:30;11.00;65.50
15359;DHT22;7779;49.596;11.070;2023-05-16T03:08:58;11.00;65.60
15359;DHT22;7779;49.596;11.070;2023-05-16T03:11:25;11.00;65.80
15359;DHT22;7779;49.596;11.070;2023-05-16T03:13:53;11.00;66.00
15359;DHT22;7779;49.596;11.070;2023-05-16T03:16:19;11.00;66.20
15359;DHT22;7779;49.596;11.070;2023-05-16T03:18:45;11.00;66.40
15359;DHT22;7779;49.596;11.070;2023-05-16T03:21:10;11.00;66.60
15359;DHT22;7779;49.596;11.070;2023-05-16T03:23:36;11.00;66.60
15359;DHT22;7779;49.596;11.070;2023-05-16T03:26:04;11.10;66.80
15359;DHT22;7779;49.596;11.070;2023-05-16T03:28:29;11.10;66.60
15359;DHT22;7779;49.596;11.070;2023-05-16T03:30:55;11.10;66.50
15359;DHT22;7779;49.596;11.070;2023-05-16T03:33:21;11.10;66.60
15359;DHT22;7779;49.596;11.070;2023-05-16T03:35:48;11.10;66.60
15359;DHT22;7779;49.596;11.070;2023-05-16T03:38:15;11.10;66.60
15359;DHT22;7779;49.596;11.070;2023-05-16T03:40:42;11.10;66.70
15359;DHT22;7779;49.596;11.070;2023-05-16T03:43:09;11.10;66.70
15359;DHT22;7779;49.596;11.070;2023-05-16T03:45:34;11.10;66.80
15359;DHT22;7779;49.596;11.070;2023-05-16T03:48:00;11.10;66.80
15359;DHT22;7779;49.596;11.070;2023-05-16T03:50:26;11.10;66.90
15359;DHT22;7779;49.596;11.070;2023-05-16T03:52:51;11.10;67.00
15359;DHT22;7779;49.596;11.070;2023-05-16T03:55:19;11.20;67.20
15359;DHT22;7779;49.596;11.070;2023-05-16T03:57:45;11.20;67.20
15359;DHT22;7779;49.596;11.070;2023-05-16T04:00:12;11.20;67.30
15359;DHT22;7779;49.596;11.070;2023-05-16T04:02:39;11.20;67.30
15359;DHT22;7779;49.596;11.070;2023-05-16T04:05:09;11.20;67.40
15359;DHT22;7779;49.596;11.070;2023-05-16T04:07:36;11.30;67.60
15359;DHT22;7779;49.596;11.070;2023-05-16T04:10:03;11.30;67.40
15359;DHT22;7779;49.596;11.070;2023-05-16T04:12:29;11.30;67.40
15359;DHT22;7779;49.596;11.070;2023-05-16T04:14:55;11.30;68.30
15359;DHT22;7779;49.596;11.070;2023-05-16T04:17:21;11.30;67.50
15359;DHT22;7779;49.596;11.070;2023-05-16T04:19:46;11.30;67.60
15359;DHT22;7779;49.596;11.070;2023-05-16T04:22:12;11.30;67.70
15359;DHT22;7779;49.596;11.070;2023-05-16T04:24:38;11.40;69.20
15359;DHT22;7779;49.596;11.070;2023-05-16T04:27:04;11.40;67.90
15359;DHT22;7779;49.596;11.070;2023-05-16T04:29:33;11.40;68.00
15359;DHT22;7779;49.596;11.070;2023-05-16T04:31:59;11.50;68.10
15359;DHT22;7779;49.596;11.070;2023-05-16T04:34:26;11.50;69.80
15359;DHT22;7779;49.596;11.070;2023-05-16T04:36:53;11.60;68.30
15359;DHT22;7779;49.596;11.070;2023-05-16T04:39:19;11.60;68.20
15359;DHT22;7779;49.596;11.070;2023-05-16T04:41:45;11.60;68.20
15359;DHT22;7779;49.596;11.070;2023-05-16T04:44:11;11.70;69.80
15359;DHT22;7779;49.596;11.070;2023-05-16T04:46:37;11.70;68.30
15359;DHT22;7779;49.596;11.070;2023-05-16T04:49:02;11.70;68.20
15359;DHT22;7779;49.596;11.070;2023-05-16T04:51:28;11.80;68.40
15359;DHT22;7779;49.596;11.070;2023-05-16T04:53:54;11.80;68.40
15359;DHT22;7779;49.596;11.070;2023-05-16T04:56:20;11.90;68.50
15359;DHT22;7779;49.596;11.070;2023-05-16T04:58:46;11.90;68.50
15359;DHT22;7779;49.596;11.070;2023-05-16T05:01:12;12.00;68.70
15359;DHT22;7779;49.596;11.070;2023-05-16T05:03:38;12.00;68.70
15359;DHT22;7779;49.596;11.070;2023-05-16T05:06:04;12.10;68.90
15359;DHT22;7779;49.596;11.070;2023-05-16T05:08:29;12.20;68.90
15359;DHT22;7779;49.596;11.070;2023-05-16T05:10:55;12.20;68.90
15359;DHT22;7779;49.596;11.070;2023-05-16T05:13:21;12.30;69.00
15359;DHT22;7779;49.596;11.070;2023-05-16T05:15:48;12.30;69.00
15359;DHT22;7779;49.596;11.070;2023-05-16T05:18:16;12.40;69.00
15359;DHT22;7779;49.596;11.070;2023-05-16T05:20:42;12.50;69.10
15359;DHT22;7779;49.596;11.070;2023-05-16T05:23:08;12.50;69.10
15359;DHT22;7779;49.596;11.070;2023-05-16T05:25:38;12.60;69.20
15359;DHT22;7779;49.596;11.070;2023-05-16T05:28:04;12.70;69.60
15359;DHT22;7779;49.596;11.070;2023-05-16T05:30:30;12.70;69.20
15359;DHT22;7779;49.596;11.070;2023-05-16T05:32:56;12.80;69.30
15359;DHT22;7779;49.596;11.070;2023-05-16T05:35:21;12.80;69.40
15359;DHT22;7779;49.596;11.070;2023-05-16T05:37:47;12.90;69.40
15359;DHT22;7779;49.596;11.070;2023-05-16T05:40:13;13.80;70.30
15359;DHT22;7779;49.596;11.070;2023-05-16T05:42:38;13.00;69.40
15359;DHT22;7779;49.596;11.070;2023-05-16T05:45:05;13.10;69.40
15359;DHT22;7779;49.596;11.070;2023-05-16T05:47:32;13.20;69.40
15359;DHT22;7779;49.596;11.070;2023-05-16T05:49:58;13.20;69.20
15359;DHT22;7779;49.596;11.070;2023-05-16T05:52:24;13.30;69.10
15359;DHT22;7779;49.596;11.070;2023-05-16T05:54:49;13.30;69.00
15359;DHT22;7779;49.596;11.070;2023-05-16T05:57:15;13.40;69.00
15359;DHT22;7779;49.596;11.070;2023-05-16T05:59:41;13.50;69.00
15359;DHT22;7779;49.596;11.070;2023-05-16T06:02:07;13.50;68.80
15359;DHT22;7779;49.596;11.070;2023-05-16T06:04:32;13.50;68.60
15359;DHT22;7779;49.596;11.070;2023-05-16T06:06:58;13.60;68.70
15359;DHT22;7779;49.596;11.070;2023-05-16T06:09:24;13.70;68.80
15359;DHT22;7779;49.596;11.070;2023-05-16T06:11:49;13.70;68.70
15359;DHT22;7779;49.596;11.070;2023-05-16T06:14:15;13.80;68.70
15359;DHT22;7779;49.596;11.070;2023-05-16T06:16:41;13.90;68.90
15359;DHT22;7779;49.596;11.070;2023-05-16T06:19:07;14.00;69.10
15359;DHT22;7779;49.596;11.070;2023-05-16T06:21:33;14.10;69.50
15359;DHT22;7779;49.596;11.070;2023-05-16T06:23:59;14.30;69.90
15359;DHT22;7779;49.596;11.070;2023-05-16T06:26:25;14.50;70.30
15359;DHT22;7779;49.596;11.070;2023-05-16T06:28:51;14.80;70.30
15359;DHT22;7779;49.596;11.070;2023-05-16T06:31:16;15.00;70.10
15359;DHT22;7779;49.596;11.070;2023-05-16T06:33:42;15.20;69.90
15359;DHT22;7779;49.596;11.070;2023-05-16T06:36:08;15.50;69.90
15359;DHT22;7779;49.596;11.070;2023-05-16T06:38:34;15.70;69.60
15359;DHT22;7779;49.596;11.070;2023-05-16T06:40:59;15.90;69.00
15359;DHT22;7779;49.596;11.070;2023-05-16T06:43:25;16.10;68.10
15359;DHT22;7779;49.596;11.070;2023-05-16T06:45:51;16.20;67.40
15359;DHT22;7779;49.596;11.070;2023-05-16T06:48:17;16.40;67.00
15359;DHT22;7779;49.596;11.070;2023-05-16T06:50:47;16.50;66.80
15359;DHT22;7779;49.596;11.070;2023-05-16T06:53:13;16.50;66.40
15359;DHT22;7779;49.596;11.070;2023-05-16T06:55:39;16.70;66.30
15359;DHT22;7779;49.596;11.070;2023-05-16T06:58:05;16.70;65.80
15359;DHT22;7779;49.596;11.070;2023-05-16T07:00:30;16.80;65.40
15359;DHT22;7779;49.596;11.070;2023-05-16T07:02:56;16.80;65.00
15359;DHT22;7779;49.596;11.070;2023-05-16T07:05:22;16.90;65.20
15359;DHT22;7779;49.596;11.070;2023-05-16T07:07:47;17.00;65.30
15359;DHT22;7779;49.596;11.070;2023-05-16T07:10:14;17.00;65.20
15359;DHT22;7779;49.596;11.070;2023-05-16T07:12:41;17.10;65.10
15359;DHT22;7779;49.596;11.070;2023-05-16T07:15:07;17.20;65.10
15359;DHT22;7779;49.596;11.070;2023-05-16T07:17:34;17.40;65.20
15359;DHT22;7779;49.596;11.070;2023-05-16T07:19:59;17.40;64.80
15359;DHT22;7779;49.596;11.070;2023-05-16T07:22:25;17.50;64.80
15359;DHT22;7779;49.596;11.070;2023-05-16T07:24:51;17.60;64.70
15359;DHT22;7779;49.596;11.070;2023-05-16T07:27:18;17.70;64.30
15359;DHT22;7779;49.596;11.070;2023-05-16T07:29:44;17.80;64.20
15359;DHT22;7779;49.596;11.070;2023-05-16T07:32:10;17.90;64.10
15359;DHT22;7779;49.596;11.070;2023-05-16T07:34:36;18.00;63.90
15359;DHT22;7779;49.596;11.070;2023-05-16T07:37:01;18.00;63.50
15359;DHT22;7779;49.596;11.070;2023-05-16T07:39:27;18.10;63.00
15359;DHT22;7779;49.596;11.070;2023-05-16T07:41:53;18.10;62.70
15359;DHT22;7779;49.596;11.070;2023-05-16T07:44:19;18.20;62.40
15359;DHT22;7779;49.596;11.070;2023-05-16T07:46:45;18.20;62.10
15359;DHT22;7779;49.596;11.070;2023-05-16T07:49:10;18.20;61.80
15359;DHT22;7779;49.596;11.070;2023-05-16T07:51:36;18.30;61.70
15359;DHT22;7779;49.596;11.070;2023-05-16T07:54:02;18.30;61.50
15359;DHT22;7779;49.596;11.070;2023-05-16T07:56:27;18.30;61.80
15359;DHT22;7779;49.596;11.070;2023-05-16T07:58:53;18.40;61.60
15359;DHT22;7779;49.596;11.070;2023-05-16T08:01:20;18.40;61.40
15359;DHT22;7779;49.596;11.070;2023-05-16T08:03:45;18.50;61.50
15359;DHT22;7779;49.596;11.070;2023-05-16T08:06:11;18.50;62.10
15359;DHT22;7779;49.596;11.070;2023-05-16T08:08:37;18.60;61.40
15359;DHT22;7779;49.596;11.070;2023-05-16T08:11:03;18.70;61.20
15359;DHT22;7779;49.596;11.070;2023-05-16T08:13:30;18.70;60.80
15359;DHT22;7779;49.596;11.070;2023-05-16T08:15:56;18.80;60.60
15359;DHT22;7779;49.596;11.070;2023-05-16T08:18:21;18.80;60.60
15359;DHT22;7779;49.596;11.070;2023-05-16T08:20:47;18.90;60.70
15359;DHT22;7779;49.596;11.070;2023-05-16T08:23:13;19.00;60.80
15359;DHT22;7779;49.596;11.070;2023-05-16T08:25:39;19.10;60.40
15359;DHT22;7779;49.596;11.070;2023-05-16T08:28:05;19.10;60.50
15359;DHT22;7779;49.596;11.070;2023-05-16T08:30:30;19.30;61.00
15359;DHT22;7779;49.596;11.070;2023-05-16T08:32:56;19.40;60.80
15359;DHT22;7779;49.596;11.070;2023-05-16T08:35:22;19.50;60.50
15359;DHT22;7779;49.596;11.070;2023-05-16T08:37:47;19.60;60.10
15359;DHT22;7779;49.596;11.070;2023-05-16T08:40:13;19.60;59.40
15359;DHT22;7779;49.596;11.070;2023-05-16T08:42:40;19.60;59.20
15359;DHT22;7779;49.596;11.070;2023-05-16T08:45:07;19.70;57.80
15359;DHT22;7779;49.596;11.070;2023-05-16T08:47:33;19.70;58.80
15359;DHT22;7779;49.596;11.070;2023-05-16T08:50:02;19.70;58.80
15359;DHT22;7779;49.596;11.070;2023-05-16T08:52:30;19.70;58.70
15359;DHT22;7779;49.596;11.070;2023-05-16T08:55:01;19.60;58.50
15359;DHT22;7779;49.596;11.070;2023-05-16T08:57:34;19.60;58.30
15359;DHT22;7779;49.596;11.070;2023-05-16T09:00:00;19.60;58.60
15359;DHT22;7779;49.596;11.070;2023-05-16T09:02:29;19.60;58.40
15359;DHT22;7779;49.596;11.070;2023-05-16T09:04:55;19.60;58.20
15359;DHT22;7779;49.596;11.070;2023-05-16T09:07:22;19.60;58.30
15359;DHT22;7779;49.596;11.070;2023-05-16T09:09:49;19.50;58.30
15359;DHT22;7779;49.596;11.070;2023-05-16T09:12:15;19.50;58.50
15359;DHT22;7779;49.596;11.070;2023-05-16T09:14:41;19.50;58.50
15359;DHT22;7779;49.596;11.070;2023-05-16T09:17:08;19.60;58.40
15359;DHT22;7779;49.596;11.070;2023-05-16T09:19:38;19.50;58.30
15359;DHT22;7779;49.596;11.070;2023-05-16T09:22:12;19.50;58.10
15359;DHT22;7779;49.596;11.070;2023-05-16T09:24:43;19.50;58.00
15359;DHT22;7779;49.596;11.070;2023-05-16T09:27:11;19.50;57.90
15359;DHT22;7779;49.596;11.070;2023-05-16T09:29:41;19.50;58.10
15359;DHT22;7779;49.596;11.070;2023-05-16T09:32:15;19.50;58.00
15359;DHT22;7779;49.596;11.070;2023-05-16T09:34:48;19.40;57.80
15359;DHT22;7779;49.596;11.070;2023-05-16T09:37:19;19.40;57.20
15359;DHT22;7779;49.596;11.070;2023-05-16T09:39:47;19.30;57.40
15359;DHT22;7779;49.596;11.070;2023-05-16T09:42:14;19.20;57.20
15359;DHT22;7779;49.596;11.070;2023-05-16T09:44:48;19.20;57.10
15359;DHT22;7779;49.596;11.070;2023-05-16T09:47:16;19.10;56.80
15359;DHT22;7779;49.596;11.070;2023-05-16T09:49:44;19.00;56.90
15359;DHT22;7779;49.596;11.070;2023-05-16T09:52:12;19.00;57.00
15359;DHT22;7779;49.596;11.070;2023-05-16T09:54:39;18.90;56.80
15359;DHT22;7779;49.596;11.070;2023-05-16T09:57:06;18.90;56.90
15359;DHT22;7779;49.596;11.070;2023-05-16T09:59:38;18.80;56.80
15359;DHT22;7779;49.596;11.070;2023-05-16T10:02:07;18.80;56.50
15359;DHT22;7779;49.596;11.070;2023-05-16T10:04:34;18.70;56.60
15359;DHT22;7779;49.596;11.070;2023-05-16T10:07:04;18.60;56.80
15359;DHT22;7779;49.596;11.070;2023-05-16T10:09:35;18.60;56.80
15359;DHT22;7779;49.596;11.070;2023-05-16T10:12:07;18.60;57.20
15359;DHT22;7779;49.596;11.070;2023-05-16T10:14:36;18.60;57.20
15359;DHT22;7779;49.596;11.070;2023-05-16T10:17:03;18.60;57.20
15359;DHT22;7779;49.596;11.070;2023-05-16T10:19:31;18.60;57.20
15359;DHT22;7779;49.596;11.070;2023-05-16T10:22:04;18.60;57.10
15359;DHT22;7779;49.596;11.070;2023-05-16T10:27:47;18.60;57.10
15359;DHT22;7779;49.596;11.070;2023-05-16T10:30:15;18.50;57.10
15359;DHT22;7779;49.596;11.070;2023-05-16T10:32:43;18.60;57.20
15359;DHT22;7779;49.596;11.070;2023-05-16T10:35:10;18.60;57.20
15359;DHT22;7779;49.596;11.070;2023-05-16T10:37:37;18.60;57.00
15359;DHT22;7779;49.596;11.070;2023-05-16T10:40:05;18.60;56.90
15359;DHT22;7779;49.596;11.070;2023-05-16T10:42:32;18.60;56.80
15359;DHT22;7779;49.596;11.070;2023-05-16T10:45:20;18.60;56.80
15359;DHT22;7779;49.596;11.070;2023-05-16T10:48:01;18.60;55.60
15359;DHT22;7779;49.596;11.070;2023-05-16T10:50:38;18.70;56.40
15359;DHT22;7779;49.596;11.070;2023-05-16T10:53:20;18.70;56.70
15359;DHT22;7779;49.596;11.070;2023-05-16T11:01:25;18.90;56.60
15359;DHT22;7779;49.596;11.070;2023-05-16T11:11:58;19.10;55.80
15359;DHT22;7779;49.596;11.070;2023-05-16T11:17:21;19.10;56.20
15359;DHT22;7779;49.596;11.070;2023-05-16T11:19:57;19.10;55.70
15359;DHT22;7779;49.596;11.070;2023-05-16T11:22:27;19.10;55.60
15359;DHT22;7779;49.596;11.070;2023-05-16T11:25:08;19.10;55.70
15359;DHT22;7779;49.596;11.070;2023-05-16T11:27:36;19.10;55.10
15359;DHT22;7779;49.596;11.070;2023-05-16T11:30:15;19.10;55.60
15359;DHT22;7779;49.596;11.070;2023-05-16T11:32:44;19.20;55.20
15359;DHT22;7779;49.596;11.070;2023-05-16T11:35:15;19.20;55.70
15359;DHT22;7779;49.596;11.070;2023-05-16T11:37:43;19.20;55.50
15359;DHT22;7779;49.596;11.070;2023-05-16T11:40:11;19.30;55.50
15359;DHT22;7779;49.596;11.070;2023-05-16T11:42:43;19.30;55.50
15359;DHT22;7779;49.596;11.070;2023-05-16T11:45:21;19.30;55.10
15359;DHT22;7779;49.596;11.070;2023-05-16T11:47:49;19.30;54.20
15359;DHT22;7779;49.596;11.070;2023-05-16T11:50:19;19.30;54.90
15359;DHT22;7779;49.596;11.070;2023-05-16T11:52:49;19.30;54.80
15359;DHT22;7779;49.596;11.070;2023-05-16T11:55:23;19.30;54.80
15359;DHT22;7779;49.596;11.070;2023-05-16T11:57:51;19.40;55.00
15359;DHT22;7779;49.596;11.070;2023-05-16T12:02:46;19.30;54.50
15359;DHT22;7779;49.596;11.070;2023-05-16T12:05:13;19.30;54.30
15359;DHT22;7779;49.596;11.070;2023-05-16T12:07:42;19.30;54.30
15359;DHT22;7779;49.596;11.070;2023-05-16T12:10:10;19.30;54.30
15359;DHT22;7779;49.596;11.070;2023-05-16T12:12:40;19.20;54.00
15359;DHT22;7779;49.596;11.070;2023-05-16T12:15:08;19.20;54.70
15359;DHT22;7779;49.596;11.070;2023-05-16T12:17:35;19.20;54.30
15359;DHT22;7779;49.596;11.070;2023-05-16T12:20:03;19.20;54.40
15359;DHT22;7779;49.596;11.070;2023-05-16T12:22:30;19.20;54.30
15359;DHT22;7779;49.596;11.070;2023-05-16T12:25:21;19.20;54.30
15359;DHT22;7779;49.596;11.070;2023-05-16T12:27:55;19.20;53.70
15359;DHT22;7779;49.596;11.070;2023-05-16T12:30:23;19.20;54.00
15359;DHT22;7779;49.596;11.070;2023-05-16T12:33:03;19.10;54.00
15359;DHT22;7779;49.596;11.070;2023-05-16T12:35:36;19.10;53.50
15359;DHT22;7779;49.596;11.070;2023-05-16T12:38:07;19.10;54.00
15359;DHT22;7779;49.596;11.070;2023-05-16T12:40:38;19.10;54.10
15359;DHT22;7779;49.596;11.070;2023-05-16T12:43:21;19.10;54.00
15359;DHT22;7779;49.596;11.070;2023-05-16T12:45:55;19.20;53.80
15359;DHT22;7779;49.596;11.070;2023-05-16T12:48:23;19.20;54.10
15359;DHT22;7779;49.596;11.070;2023-05-16T12:50:56;19.30;54.30
15359;DHT22;7779;49.596;11.070;2023-05-16T12:53:21;19.30;54.00
15359;DHT22;7779;49.596;11.070;2023-05-16T12:55:47;19.30;53.60
15359;DHT22;7779;49.596;11.070;2023-05-16T12:58:13;19.30;53.50
15359;DHT22;7779;49.596;11.070;2023-05-16T13:00:38;19.30;53.50
15359;DHT22;7779;49.596;11.070;2023-05-16T13:03:05;19.30;53.50
15359;DHT22;7779;49.596;11.070;2023-05-16T13:05:32;19.20;53.40
15359;DHT22;7779;49.596;11.070;2023-05-16T13:07:59;19.30;53.70
15359;DHT22;7779;49.596;11.070;2023-05-16T13:10:25;19.30;53.80
15359;DHT22;7779;49.596;11.070;2023-05-16T13:12:51;19.30;53.50
15359;DHT22;7779;49.596;11.070;2023-05-16T13:15:17;19.30;53.00
15359;DHT22;7779;49.596;11.070;2023-05-16T13:17:42;19.30;53.00
15359;DHT22;7779;49.596;11.070;2023-05-16T13:20:09;19.30;52.80
15359;DHT22;7779;49.596;11.070;2023-05-16T13:22:41;19.30;52.70
15359;DHT22;7779;49.596;11.070;2023-05-16T13:25:09;19.30;52.70
15359;DHT22;7779;49.596;11.070;2023-05-16T13:27:36;19.20;52.70
15359;DHT22;7779;49.596;11.070;2023-05-16T13:30:02;19.20;52.60
15359;DHT22;7779;49.596;11.070;2023-05-16T13:32:28;19.20;52.70
15359;DHT22;7779;49.596;11.070;2023-05-16T13:34:54;19.20;52.60
15359;DHT22;7779;49.596;11.070;2023-05-16T13:37:21;19.20;52.50
15359;DHT22;7779;49.596;11.070;2023-05-16T13:39:48;19.10;52.20
15359;DHT22;7779;49.596;11.070;2023-05-16T13:42:14;19.10;52.10
15359;DHT22;7779;49.596;11.070;2023-05-16T13:44:40;19.00;52.20
15359;DHT22;7779;49.596;11.070;2023-05-16T13:47:07;19.00;52.30
15359;DHT22;7779;49.596;11.070;2023-05-16T13:49:33;19.00;52.40
15359;DHT22;7779;49.596;11.070;2023-05-16T13:51:59;19.00;52.40
15359;DHT22;7779;49.596;11.070;2023-05-16T13:54:26;18.90;52.10
15359;DHT22;7779;49.596;11.070;2023-05-16T13:56:52;18.90;52.20
15359;DHT22;7779;49.596;11.070;2023-05-16T13:59:18;18.90;52.10
15359;DHT22;7779;49.596;11.070;2023-05-16T14:01:43;18.90;52.00
15359;DHT22;7779;49.596;11.070;2023-05-16T14:04:09;18.90;51.90
15359;DHT22;7779;49.596;11.070;2023-05-16T14:06:35;18.90;52.00
15359;DHT22;7779;49.596;11.070;2023-05-16T14:09:01;18.90;51.80
15359;DHT22;7779;49.596;11.070;2023-05-16T14:11:27;18.90;51.70
15359;DHT22;7779;49.596;11.070;2023-05-16T14:13:53;18.80;51.50
15359;DHT22;7779;49.596;11.070;2023-05-16T14:16:19;18.90;51.80
15359;DHT22;7779;49.596;11.070;2023-05-16T14:18:45;18.80;51.70
15359;DHT22;7779;49.596;11.070;2023-05-16T14:21:11;18.80;51.80
15359;DHT22;7779;49.596;11.070;2023-05-16T14:23:37;18.80;52.00
15359;DHT22;7779;49.596;11.070;2023-05-16T14:26:04;18.80;52.00
15359;DHT22;7779;49.596;11.070;2023-05-16T14:28:30;18.70;51.80
15359;DHT22;7779;49.596;11.070;2023-05-16T14:30:58;18.70;51.60
15359;DHT22;7779;49.596;11.070;2023-05-16T14:33:24;18.70;51.70
15359;DHT22;7779;49.596;11.070;2023-05-16T14:35:50;18.60;51.70
15359;DHT22;7779;49.596;11.070;2023-05-16T14:38:17;18.60;51.70
15359;DHT22;7779;49.596;11.070;2023-05-16T14:40:43;18.60;51.70
15359;DHT22;7779;49.596;11.070;2023-05-16T14:43:09;18.50;51.60
15359;DHT22;7779;49.596;11.070;2023-05-16T14:45:36;18.50;51.60
15359;DHT22;7779;49.596;11.070;2023-05-16T14:48:05;18.40;51.30
15359;DHT22;7779;49.596;11.070;2023-05-16T14:50:31;18.30;51.40
15359;DHT22;7779;49.596;11.070;2023-05-16T14:52:57;18.30;51.50
15359;DHT22;7779;49.596;11.070;2023-05-16T14:55:23;18.20;51.60
15359;DHT22;7779;49.596;11.070;2023-05-16T14:57:48;18.20;51.70
15359;DHT22;7779;49.596;11.070;2023-05-16T15:00:15;18.10;51.80
15359;DHT22;7779;49.596;11.070;2023-05-16T15:02:41;18.10;51.80
15359;DHT22;7779;49.596;11.070;2023-05-16T15:05:08;18.10;51.90
15359;DHT22;7779;49.596;11.070;2023-05-16T15:07:34;18.00;51.80
15359;DHT22;7779;49.596;11.070;2023-05-16T15:10:00;18.00;51.90
15359;DHT22;7779;49.596;11.070;2023-05-16T15:12:26;17.90;51.80
15359;DHT22;7779;49.596;11.070;2023-05-16T15:14:52;17.90;51.70
15359;DHT22;7779;49.596;11.070;2023-05-16T15:17:17;17.80;51.60
15359;DHT22;7779;49.596;11.070;2023-05-16T15:19:43;17.70;51.50
15359;DHT22;7779;49.596;11.070;2023-05-16T15:22:09;17.70;51.50
15359;DHT22;7779;49.596;11.070;2023-05-16T15:24:35;17.60;51.50
15359;DHT22;7779;49.596;11.070;2023-05-16T15:27:01;17.50;51.50
15359;DHT22;7779;49.596;11.070;2023-05-16T15:29:29;17.40;51.50
15359;DHT22;7779;49.596;11.070;2023-05-16T15:31:56;17.30;51.50
15359;DHT22;7779;49.596;11.070;2023-05-16T15:34:22;17.20;51.50
15359;DHT22;7779;49.596;11.070;2023-05-16T15:36:47;17.20;51.70
15359;DHT22;7779;49.596;11.070;2023-05-16T15:39:13;17.10;51.80
15359;DHT22;7779;49.596;11.070;2023-05-16T15:41:39;17.10;52.00
15359;DHT22;7779;49.596;11.070;2023-05-16T15:44:05;17.00;52.00
15359;DHT22;7779;49.596;11.070;2023-05-16T15:46:30;17.00;52.10
15359;DHT22;7779;49.596;11.070;2023-05-16T15:48:57;16.90;52.10
15359;DHT22;7779;49.596;11.070;2023-05-16T15:51:23;16.90;52.00
15359;DHT22;7779;49.596;11.070;2023-05-16T15:53:49;16.80;52.00
15359;DHT22;7779;49.596;11.070;2023-05-16T15:56:14;16.80;52.10
15359;DHT22;7779;49.596;11.070;2023-05-16T15:58:41;16.70;52.10